Terminal Aerodrome Forecast
Issued by NWS Tulsa, OK

Home | Current Version | Previous Version | Text Only | Print | Product List | Glossary On
Versions: 1 2 3 4 5 6 7 8 9 10 11 12 13 14 15
000
FTUS44 KTSA 192113 AAA
TAFFSM
TAF AMD
KFSM 192113Z 1921/2018 13007KT P6SM SCT025
     FM200100 08005KT P6SM OVC015
     FM200900 09008KT 4SM BR VCTS OVC015CB
      TEMPO 2010/2014 2SM -TSRA OVC007CB
     FM201400 12008KT 4SM -RA BR OVC007=

USA.gov is the U.S. government's official web portal to all federal, state and local government web resources and services.